createdAt,value
2019-05-20T00:01:01.350Z,32.08
2019-05-20T00:03:33.538Z,26.57
2019-05-20T00:06:06.533Z,36.08
2019-05-20T00:08:39.380Z,29.67
2019-05-20T00:11:11.760Z,27.60
2019-05-20T00:13:44.228Z,28.12
2019-05-20T00:16:16.571Z,27.05
2019-05-20T00:18:49.072Z,26.40
2019-05-20T00:21:21.444Z,29.45
2019-05-20T00:23:53.835Z,26.12
2019-05-20T00:26:26.102Z,28.42
2019-05-20T00:28:58.221Z,27.58
2019-05-20T00:31:30.369Z,26.57
2019-05-20T00:34:02.410Z,30.40
2019-05-20T00:36:34.707Z,29.50
2019-05-20T00:39:10.113Z,31.60
2019-05-20T00:41:42.431Z,39.15
2019-05-20T00:44:17.704Z,30.90
2019-05-20T00:46:50.323Z,28.75
2019-05-20T00:49:22.274Z,27.48
2019-05-20T00:51:54.702Z,32.45
2019-05-20T00:54:26.967Z,26.87
2019-05-20T00:56:59.245Z,22.22
2019-05-20T00:59:31.868Z,32.78
2019-05-20T01:02:03.934Z,34.40
2019-05-20T01:04:36.005Z,24.05
2019-05-20T01:07:09.820Z,26.42
2019-05-20T01:09:41.993Z,23.55
2019-05-20T01:12:14.036Z,21.80
2019-05-20T01:14:46.717Z,31.70
2019-05-20T01:17:18.739Z,35.65
2019-05-20T01:19:50.974Z,32.28
2019-05-20T01:22:22.980Z,35.88
2019-05-20T01:24:56.057Z,22.02
2019-05-20T01:27:28.109Z,29.05
2019-05-20T01:30:00.158Z,25.80
2019-05-20T01:32:32.187Z,27.62
2019-05-20T01:35:04.493Z,30.00
2019-05-20T01:37:36.550Z,24.80
2019-05-20T01:40:09.080Z,28.90
2019-05-20T01:42:41.349Z,27.77
2019-05-20T01:45:13.956Z,32.20
2019-05-20T01:47:47.093Z,23.52
2019-05-20T01:50:19.338Z,25.05
2019-05-20T01:52:51.262Z,28.35
2019-05-20T01:55:23.245Z,23.85
2019-05-20T01:57:55.741Z,28.15
2019-05-20T02:00:28.292Z,32.58
2019-05-20T02:03:00.500Z,27.87
2019-05-20T02:05:32.628Z,26.48
2019-05-20T02:08:05.240Z,21.65
2019-05-20T02:10:38.586Z,31.52
2019-05-20T02:13:14.064Z,23.55
2019-05-20T02:15:54.844Z,23.40
2019-05-20T02:18:26.933Z,26.80
2019-05-20T02:20:58.878Z,23.92
2019-05-20T02:23:31.338Z,27.05
2019-05-20T02:26:22.407Z,21.95
2019-05-20T02:28:54.493Z,26.85
2019-05-20T02:31:26.798Z,24.25
2019-05-20T02:33:59.382Z,25.75
2019-05-20T02:36:31.824Z,21.30
2019-05-20T02:39:26.731Z,26.97
2019-05-20T02:41:57.925Z,32.63
2019-05-20T02:44:50.584Z,25.75
2019-05-20T02:47:22.479Z,23.50
2019-05-20T02:49:55.174Z,28.27
2019-05-20T02:52:27.088Z,23.92
2019-05-20T02:54:59.478Z,25.82
2019-05-20T02:57:32.082Z,26.57
2019-05-20T03:00:24.410Z,22.67
2019-05-20T03:02:56.141Z,29.92
2019-05-20T03:05:28.171Z,18.80
2019-05-20T03:08:01.601Z,31.68
2019-05-20T03:10:33.667Z,32.23
2019-05-20T03:13:06.887Z,27.58
2019-05-20T03:15:59.972Z,25.50
2019-05-20T03:18:32.369Z,26.97
2019-05-20T03:21:04.613Z,19.42
2019-05-20T03:23:36.949Z,25.20
2019-05-20T03:26:11.119Z,20.82
2019-05-20T03:28:43.277Z,19.80
2019-05-20T03:31:17.788Z,18.07
2019-05-20T03:33:59.477Z,25.17
2019-05-20T03:36:31.666Z,26.37
2019-05-20T03:39:22.753Z,21.37
2019-05-20T03:41:55.565Z,24.63
2019-05-20T03:44:37.326Z,23.22
2019-05-20T03:47:09.907Z,21.17
2019-05-20T03:49:42.083Z,24.90
2019-05-20T03:52:14.451Z,18.45
2019-05-20T03:54:47.137Z,22.15
2019-05-20T03:57:20.275Z,26.62
2019-05-20T03:59:52.720Z,21.02
2019-05-20T04:02:25.760Z,17.80
2019-05-20T04:05:02.739Z,25.65
2019-05-20T04:07:32.151Z,23.27
2019-05-20T04:10:05.201Z,17.37
2019-05-20T04:12:37.429Z,23.92
2019-05-20T04:15:10.191Z,20.25
2019-05-20T04:17:42.230Z,26.77
2019-05-20T04:20:16.542Z,24.02
2019-05-20T04:22:49.114Z,25.20
2019-05-20T04:25:21.160Z,34.33
2019-05-20T04:27:53.648Z,20.32
2019-05-20T04:30:25.766Z,24.75
2019-05-20T04:32:57.980Z,33.67
2019-05-20T04:35:30.497Z,24.23
2019-05-20T04:38:02.773Z,22.42
2019-05-20T04:40:36.801Z,32.13
2019-05-20T04:43:24.215Z,29.02
2019-05-20T04:45:57.338Z,21.15
2019-05-20T04:48:30.231Z,20.95
2019-05-20T04:51:22.464Z,19.80
2019-05-20T04:53:54.939Z,20.32
2019-05-20T04:56:29.330Z,20.30
2019-05-20T04:59:01.753Z,17.10
2019-05-20T05:01:34.465Z,23.55
2019-05-20T05:04:06.574Z,19.00
2019-05-20T05:06:39.058Z,17.15
2019-05-20T05:09:11.468Z,19.50
2019-05-20T05:11:43.840Z,20.17
2019-05-20T05:14:16.155Z,22.07
2019-05-20T05:16:48.056Z,15.40
2019-05-20T05:19:20.236Z,24.27
2019-05-20T05:21:52.469Z,20.85
2019-05-20T05:24:25.873Z,19.27
2019-05-20T05:26:59.582Z,18.82
2019-05-20T05:29:32.253Z,19.25
2019-05-20T05:32:04.565Z,20.95
2019-05-20T05:34:36.952Z,18.45
2019-05-20T05:37:09.696Z,16.00
2019-05-20T05:39:41.746Z,14.93
2019-05-20T05:42:13.800Z,14.38
2019-05-20T05:44:46.540Z,18.60
2019-05-20T05:47:18.484Z,22.52
2019-05-20T05:49:50.394Z,17.90
2019-05-20T05:52:23.535Z,16.45
2019-05-20T05:54:55.829Z,17.42
2019-05-20T05:57:28.245Z,17.95
2019-05-20T06:00:00.572Z,14.45
2019-05-20T06:02:32.799Z,21.50
2019-05-20T06:05:05.206Z,19.42
2019-05-20T06:07:37.589Z,17.65
2019-05-20T06:10:11.851Z,17.32
2019-05-20T06:12:43.985Z,21.07
2019-05-20T06:15:16.892Z,20.65
2019-05-20T06:17:49.063Z,20.40
2019-05-20T06:20:29.182Z,22.45
2019-05-20T06:23:01.383Z,20.95
2019-05-20T06:25:34.157Z,21.52
2019-05-20T06:28:06.320Z,17.65
2019-05-20T06:30:42.660Z,12.95
2019-05-20T06:33:15.377Z,15.98
2019-05-20T06:35:47.592Z,17.73
2019-05-20T06:38:22.364Z,20.40
2019-05-20T06:40:54.523Z,15.43
2019-05-20T06:43:26.607Z,15.08
2019-05-20T06:45:59.504Z,18.70
2019-05-20T06:48:31.797Z,17.07
2019-05-20T06:51:03.989Z,12.63
2019-05-20T06:53:36.560Z,14.70
2019-05-20T06:56:28.789Z,15.65
2019-05-20T06:59:21.172Z,21.93
2019-05-20T07:01:53.213Z,13.43
2019-05-20T07:04:45.243Z,14.73
2019-05-20T07:07:21.001Z,14.65
2019-05-20T07:09:51.630Z,18.92
2019-05-20T07:12:38.541Z,17.77
2019-05-20T07:14:57.655Z,11.80
2019-05-20T07:17:29.986Z,14.30
2019-05-20T07:20:02.594Z,13.65
2019-05-20T07:22:53.867Z,18.67
2019-05-20T07:25:10.000Z,18.80
2019-05-20T07:27:42.182Z,15.53
2019-05-20T07:30:23.658Z,14.93
2019-05-20T07:32:56.014Z,15.48
2019-05-20T07:35:30.721Z,19.35
2019-05-20T07:38:02.234Z,21.77
2019-05-20T07:43:24.288Z,20.43
2019-05-20T07:45:56.921Z,17.15
2019-05-20T07:48:30.342Z,14.33
2019-05-20T07:51:04.048Z,22.58
2019-05-20T07:53:36.891Z,27.35
2019-05-20T07:56:12.506Z,18.02
2019-05-20T07:59:05.973Z,17.82
2019-05-20T08:01:39.463Z,16.85
2019-05-20T08:04:11.539Z,17.73
2019-05-20T08:06:46.347Z,16.93
2019-05-20T08:09:18.414Z,25.52
2019-05-20T08:11:50.477Z,18.48
2019-05-20T08:14:22.708Z,15.65
2019-05-20T08:16:55.360Z,19.55
2019-05-20T08:19:27.804Z,19.65
2019-05-20T08:21:59.668Z,20.55
2019-05-20T08:24:31.962Z,20.52
2019-05-20T08:27:04.423Z,14.93
2019-05-20T08:29:36.417Z,19.20
2019-05-20T08:32:08.865Z,17.73
2019-05-20T08:34:41.210Z,12.45
2019-05-20T08:37:13.122Z,14.10
2019-05-20T08:39:45.467Z,13.25
2019-05-20T08:42:18.098Z,22.73
2019-05-20T08:44:50.765Z,18.37
2019-05-20T08:47:23.098Z,16.10
2019-05-20T08:49:55.547Z,14.25
2019-05-20T08:52:28.181Z,26.80
2019-05-20T08:55:02.804Z,14.63
2019-05-20T08:57:34.834Z,16.10
2019-05-20T09:00:09.690Z,17.77
2019-05-20T09:02:42.701Z,18.07
2019-05-20T09:05:33.774Z,22.82
2019-05-20T09:08:07.409Z,27.60
2019-05-20T09:10:59.187Z,17.20
2019-05-20T09:13:31.272Z,13.40
2019-05-20T09:16:03.754Z,16.60
2019-05-20T09:18:35.992Z,15.75
2019-05-20T09:21:08.687Z,21.42
2019-05-20T09:23:41.336Z,14.58
2019-05-20T09:26:13.596Z,17.87
2019-05-20T09:28:45.929Z,19.10
2019-05-20T09:31:18.055Z,22.52
2019-05-20T09:33:50.881Z,16.67
2019-05-20T09:36:25.918Z,21.50
2019-05-20T09:38:57.436Z,17.20
2019-05-20T09:41:29.646Z,19.07
2019-05-20T09:44:01.754Z,18.00
2019-05-20T09:46:33.845Z,17.40
2019-05-20T09:49:06.049Z,18.75
2019-05-20T09:51:38.479Z,20.68
2019-05-20T09:54:30.646Z,15.00
2019-05-20T09:57:02.544Z,18.15
2019-05-20T09:59:43.364Z,19.70
2019-05-20T10:02:10.562Z,18.62
2019-05-20T10:04:44.045Z,17.98
2019-05-20T10:07:17.442Z,16.70
2019-05-20T10:09:50.943Z,13.70
2019-05-20T10:12:23.377Z,16.52
2019-05-20T10:14:55.509Z,15.48
2019-05-20T10:17:27.796Z,13.40
2019-05-20T10:19:59.983Z,17.57
2019-05-20T10:22:31.940Z,16.30
2019-05-20T10:25:04.159Z,19.82
2019-05-20T10:27:36.411Z,16.05
2019-05-20T10:30:11.920Z,19.15
2019-05-20T10:33:03.282Z,16.05
2019-05-20T10:35:36.322Z,17.27
2019-05-20T10:38:08.480Z,20.17
2019-05-20T10:40:40.748Z,13.15
2019-05-20T10:43:13.308Z,30.62
2019-05-20T10:45:45.526Z,29.87
2019-05-20T10:48:36.994Z,23.40
2019-05-20T10:51:10.448Z,18.75
2019-05-20T10:53:43.006Z,26.05
2019-05-20T10:56:15.223Z,19.37
2019-05-20T10:58:48.297Z,21.45
2019-05-20T11:01:20.748Z,17.20
2019-05-20T11:03:53.153Z,18.25
2019-05-20T11:06:25.383Z,25.20
2019-05-20T11:09:11.698Z,23.70
2019-05-20T11:11:31.721Z,14.33
2019-05-20T11:14:03.996Z,23.02
2019-05-20T11:16:36.320Z,20.27
2019-05-20T11:19:08.970Z,20.95
2019-05-20T11:21:42.025Z,24.27
2019-05-20T11:24:18.807Z,15.23
2019-05-20T11:26:50.943Z,23.70
2019-05-20T11:29:23.021Z,19.65
2019-05-20T11:31:55.040Z,25.43
2019-05-20T11:34:27.090Z,17.25
2019-05-20T11:37:20.161Z,24.43
2019-05-20T11:39:53.226Z,21.57
2019-05-20T11:42:25.245Z,24.30
2019-05-20T11:44:57.397Z,23.50
2019-05-20T11:47:29.700Z,29.98
2019-05-20T11:50:02.536Z,20.35
2019-05-20T11:52:34.877Z,32.58
2019-05-20T11:55:08.159Z,24.87
2019-05-20T11:57:40.692Z,21.80
2019-05-20T12:00:14.567Z,24.72
2019-05-20T12:02:47.078Z,23.20
2019-05-20T12:05:19.920Z,22.15
2019-05-20T12:07:51.983Z,29.25
2019-05-20T12:10:25.084Z,21.12
2019-05-20T12:12:57.563Z,25.02
2019-05-20T12:15:29.882Z,25.80
2019-05-20T12:18:01.818Z,26.10
2019-05-20T12:20:33.904Z,19.60
2019-05-20T12:23:06.375Z,26.42
2019-05-20T12:25:39.012Z,23.83
2019-05-20T12:28:17.902Z,17.05
2019-05-20T12:30:49.850Z,22.75
2019-05-20T12:33:21.992Z,27.30
2019-05-20T12:35:54.603Z,25.77
2019-05-20T12:38:27.847Z,15.83
2019-05-20T12:41:18.982Z,23.05
2019-05-20T12:44:10.100Z,20.90
2019-05-20T12:46:25.762Z,21.73
2019-05-20T12:48:57.872Z,17.85
2019-05-20T12:51:29.971Z,23.27
2019-05-20T12:54:02.322Z,30.65
2019-05-20T12:56:34.261Z,28.90
2019-05-20T12:59:06.766Z,27.65
2019-05-20T13:01:38.996Z,30.35
2019-05-20T13:04:11.482Z,23.30
2019-05-20T13:06:43.629Z,24.12
2019-05-20T13:09:15.467Z,23.30
2019-05-20T13:11:47.614Z,18.17
2019-05-20T13:14:19.934Z,22.65
2019-05-20T13:16:51.885Z,27.27
2019-05-20T13:19:24.371Z,22.22
2019-05-20T13:21:56.547Z,27.67
2019-05-20T13:24:28.789Z,29.07
2019-05-20T13:27:01.346Z,26.00
2019-05-20T13:29:33.709Z,21.40
2019-05-20T13:32:06.180Z,27.65
2019-05-20T13:34:38.231Z,24.50
2019-05-20T13:37:10.339Z,22.22
2019-05-20T13:39:42.476Z,25.43
2019-05-20T13:42:14.751Z,19.10
2019-05-20T13:44:47.710Z,21.95
2019-05-20T13:47:19.767Z,18.30
2019-05-20T16:24:49.558Z,15.35
2019-05-20T16:27:21.650Z,14.73
2019-05-20T16:30:05.355Z,20.17
2019-05-20T16:32:29.566Z,16.00
2019-05-20T16:35:02.032Z,13.80
2019-05-20T16:37:34.710Z,18.30
2019-05-20T16:40:10.202Z,15.10
2019-05-20T16:42:42.625Z,13.03
2019-05-20T16:45:17.232Z,16.97
2019-05-20T16:47:49.413Z,16.75
2019-05-20T16:50:22.053Z,16.10
2019-05-20T16:52:54.535Z,14.25
2019-05-20T16:55:29.417Z,16.05
2019-05-20T16:58:01.772Z,15.50
2019-05-20T17:00:34.092Z,17.95
2019-05-20T17:03:06.425Z,14.35
2019-05-20T17:05:39.457Z,16.75
2019-05-20T17:08:11.272Z,12.93
2019-05-20T17:10:43.349Z,15.18
2019-05-20T17:13:15.435Z,17.10
2019-05-20T17:15:47.900Z,18.50
2019-05-20T17:18:20.069Z,14.00
2019-05-20T17:20:52.144Z,14.30
2019-05-20T17:23:24.439Z,12.33
2019-05-20T17:25:56.767Z,15.20
2019-05-20T17:28:29.256Z,14.40
2019-05-20T17:31:01.421Z,19.77
2019-05-20T17:33:33.898Z,14.03
2019-05-20T17:36:06.368Z,16.02
2019-05-20T17:38:38.855Z,11.78
2019-05-20T17:41:10.992Z,17.15
2019-05-20T17:43:43.814Z,16.80
2019-05-20T17:46:16.362Z,15.80
2019-05-20T17:48:48.646Z,16.10
2019-05-20T17:51:20.828Z,15.43
2019-05-20T17:53:54.026Z,14.90
2019-05-20T17:56:26.307Z,14.47
2019-05-20T17:58:58.224Z,13.45
2019-05-20T18:01:30.741Z,17.57
2019-05-20T18:04:03.099Z,16.32
2019-05-20T18:06:35.331Z,14.73
2019-05-20T18:09:12.378Z,12.15
2019-05-20T18:11:44.389Z,13.88
2019-05-20T18:14:16.879Z,15.15
2019-05-20T18:16:50.230Z,21.35
2019-05-20T18:19:24.997Z,14.87
2019-05-20T18:21:56.129Z,15.85
2019-05-20T18:24:29.348Z,14.18
2019-05-20T18:27:01.645Z,14.13
2019-05-20T18:29:33.850Z,15.98
2019-05-20T18:32:06.145Z,18.23
2019-05-20T18:34:38.336Z,11.90
2019-05-20T18:37:10.426Z,16.82
2019-05-20T18:39:42.462Z,12.55
2019-05-20T18:42:17.418Z,13.80
2019-05-20T18:44:49.449Z,15.10
2019-05-20T18:47:21.411Z,15.60
2019-05-20T18:49:53.909Z,16.48
2019-05-20T18:52:26.066Z,15.03
2019-05-20T18:54:58.486Z,12.40
2019-05-20T18:57:30.574Z,20.52
2019-05-20T19:00:02.946Z,12.40
2019-05-20T19:02:40.308Z,12.73
2019-05-20T19:05:13.645Z,14.85
2019-05-20T19:07:47.905Z,19.48
2019-05-20T19:10:20.262Z,15.72
2019-05-20T19:12:52.608Z,12.82
2019-05-20T19:15:24.891Z,12.40
2019-05-20T19:17:57.015Z,16.15
2019-05-20T19:20:30.300Z,13.28
2019-05-20T19:23:02.252Z,14.65
2019-05-20T19:25:37.772Z,13.10
2019-05-20T19:28:08.563Z,16.82
2019-05-20T19:30:40.724Z,15.95
2019-05-20T19:33:14.129Z,16.90
2019-05-20T19:35:46.112Z,15.05
2019-05-20T19:38:18.256Z,12.33
2019-05-20T19:40:51.665Z,13.05
2019-05-20T19:43:24.778Z,16.73
2019-05-20T19:45:57.234Z,15.83
2019-05-20T19:48:29.377Z,19.25
2019-05-20T19:51:01.856Z,13.08
2019-05-20T19:53:34.207Z,14.33
2019-05-20T19:56:07.306Z,17.25
2019-05-20T19:58:39.742Z,17.85
2019-05-20T20:01:12.029Z,17.02
2019-05-20T20:03:44.331Z,18.67
2019-05-20T20:06:16.521Z,17.67
2019-05-20T20:08:48.680Z,22.95
2019-05-20T20:11:20.663Z,18.85
2019-05-20T20:13:53.037Z,17.62
2019-05-20T20:16:25.124Z,19.48
2019-05-20T20:18:57.110Z,16.45
2019-05-20T20:21:29.574Z,23.27
2019-05-20T20:24:01.508Z,18.55
2019-05-20T20:26:34.890Z,17.55
2019-05-20T20:29:07.062Z,16.90
2019-05-20T20:31:39.261Z,19.30
2019-05-20T20:34:11.636Z,16.93
2019-05-20T20:36:44.075Z,18.55
2019-05-20T20:39:16.090Z,21.40
2019-05-20T20:41:48.110Z,20.65
2019-05-20T20:44:20.293Z,14.50
2019-05-20T20:46:52.554Z,16.25
2019-05-20T20:49:24.621Z,14.70
2019-05-20T20:51:56.796Z,17.65
2019-05-20T20:54:28.625Z,19.65
2019-05-20T20:57:02.400Z,15.00
2019-05-20T20:59:34.471Z,15.90
2019-05-20T21:02:06.734Z,20.80
2019-05-20T21:04:39.061Z,18.02
2019-05-20T21:07:11.264Z,20.75
2019-05-20T21:09:43.291Z,16.15
2019-05-20T21:12:15.444Z,22.27
2019-05-20T21:14:47.529Z,26.55
2019-05-20T21:17:30.806Z,16.95
2019-05-20T21:20:02.904Z,18.10
2019-05-20T21:22:36.167Z,20.43
2019-05-20T21:25:09.203Z,18.65
2019-05-20T21:27:41.166Z,21.50
2019-05-20T21:30:14.314Z,21.25
2019-05-20T21:32:47.285Z,22.00
2019-05-20T21:35:19.259Z,20.65
2019-05-20T21:37:51.677Z,18.02
2019-05-20T21:40:23.746Z,24.87
2019-05-20T21:42:55.760Z,22.05
2019-05-20T21:45:28.024Z,22.75
2019-05-20T21:48:00.009Z,14.78
2019-05-20T21:50:32.118Z,20.75
2019-05-20T21:53:04.491Z,19.52
2019-05-20T21:55:36.808Z,20.85
2019-05-20T21:58:09.285Z,15.50
2019-05-20T22:00:41.562Z,16.57
2019-05-20T22:03:23.885Z,22.10
2019-05-20T22:05:47.328Z,16.67
2019-05-20T22:08:19.911Z,19.12
2019-05-20T22:10:52.290Z,21.70
2019-05-20T22:13:24.412Z,17.55
2019-05-20T22:15:56.473Z,19.98
2019-05-20T22:18:29.099Z,21.90
2019-05-20T22:21:01.707Z,15.43
2019-05-20T22:23:34.911Z,20.80
2019-05-20T22:26:07.387Z,23.25
2019-05-20T22:28:39.435Z,25.02
2019-05-20T22:31:12.183Z,22.82
2019-05-20T22:33:44.263Z,22.52
2019-05-20T22:36:16.258Z,22.60
2019-05-20T22:38:48.579Z,20.97
2019-05-20T22:41:21.784Z,20.92
2019-05-20T22:43:54.202Z,26.45
2019-05-20T22:46:26.319Z,29.87
2019-05-20T22:48:58.376Z,23.02
2019-05-20T22:51:30.701Z,21.00
2019-05-20T22:54:02.823Z,26.07
2019-05-20T22:56:35.101Z,22.85
2019-05-20T22:59:07.679Z,19.87
2019-05-20T23:01:39.711Z,20.72
2019-05-20T23:04:12.126Z,22.22
2019-05-20T23:06:44.174Z,29.87
2019-05-20T23:09:16.407Z,24.60
2019-05-20T23:11:48.840Z,20.40
2019-05-20T23:14:21.012Z,19.60
2019-05-20T23:16:53.709Z,24.15
2019-05-20T23:19:25.551Z,22.62
2019-05-20T23:21:57.719Z,20.85
2019-05-20T23:24:30.167Z,20.80
2019-05-20T23:27:02.263Z,26.80
2019-05-20T23:29:34.948Z,25.68
2019-05-20T23:32:07.146Z,29.10
2019-05-20T23:34:40.346Z,26.97
2019-05-20T23:37:12.721Z,25.92
2019-05-20T23:39:44.884Z,25.85
2019-05-20T23:42:17.413Z,29.95
2019-05-20T23:44:49.583Z,23.07
2019-05-20T23:47:21.553Z,21.70
2019-05-20T23:49:56.869Z,26.20
2019-05-20T23:52:29.093Z,22.40
2019-05-20T23:55:01.529Z,34.33
2019-05-20T23:57:34.250Z,36.10
